Time;durP1;ratioP1;P1;durP2;ratioP2;P2;SDS_P1;SDS_P2;PMS_P1;PMS_P2;Temp;Humidity;BMP_temperature;BMP_pressure;BME280_temperature;BME280_humidity;BME280_pressure;Samples;Min_cycle;Max_cycle;Signal;HPM_P1;HPM_P2
2023/10/27 00:00:45;;;;;;;20.52;10.00;;;9.60;99.90;;;;;;5065989;28;20063;-35
2023/10/27 00:03:11;;;;;;;19.15;11.20;;;9.60;99.90;;;;;;5076040;28;20052;-40
2023/10/27 00:05:36;;;;;;;20.58;11.07;;;9.60;99.90;;;;;;5076674;28;20059;-34
2023/10/27 00:08:02;;;;;;;19.27;10.73;;;9.60;99.90;;;;;;5068496;28;20056;-34
2023/10/27 00:10:28;;;;;;;20.80;9.45;;;9.50;99.90;;;;;;5067163;28;20109;-34
2023/10/27 00:12:54;;;;;;;20.88;11.23;;;9.60;99.90;;;;;;5083520;28;20127;-34
2023/10/27 00:15:20;;;;;;;18.17;10.38;;;9.50;99.90;;;;;;5076148;28;20570;-34
2023/10/27 00:17:46;;;;;;;18.70;9.75;;;9.60;99.90;;;;;;5072600;28;20067;-35
2023/10/27 00:20:12;;;;;;;18.90;10.88;;;9.60;99.90;;;;;;5073060;28;20063;-34
2023/10/27 00:22:38;;;;;;;20.35;11.10;;;9.60;99.90;;;;;;5058193;28;20062;-34
2023/10/27 00:25:04;;;;;;;19.33;10.20;;;9.60;99.90;;;;;;5060814;28;20056;-34
2023/10/27 00:27:30;;;;;;;17.77;10.13;;;9.60;99.90;;;;;;5066655;28;20053;-34
2023/10/27 00:29:56;;;;;;;18.65;10.38;;;9.60;99.90;;;;;;5068460;28;20041;-34
2023/10/27 00:32:21;;;;;;;18.10;9.82;;;9.60;99.90;;;;;;5069033;28;20125;-34
2023/10/27 00:34:47;;;;;;;19.48;9.90;;;9.60;99.90;;;;;;5067609;28;20056;-34
2023/10/27 00:37:13;;;;;;;18.23;10.27;;;9.60;99.90;;;;;;5068580;28;20059;-34
2023/10/27 00:39:39;;;;;;;21.25;11.40;;;9.60;99.90;;;;;;5067665;28;20131;-34
2023/10/27 00:42:05;;;;;;;20.58;12.40;;;9.60;99.90;;;;;;5065947;28;20048;-34
2023/10/27 00:44:31;;;;;;;17.27;8.70;;;9.60;99.90;;;;;;5068120;28;20553;-34
2023/10/27 00:46:57;;;;;;;19.42;10.07;;;9.60;99.90;;;;;;5068284;28;20497;-34
2023/10/27 00:49:24;;;;;;;19.13;9.80;;;9.60;99.90;;;;;;5068509;28;20211;-34
2023/10/27 00:51:50;;;;;;;18.45;9.60;;;9.50;99.90;;;;;;5070913;28;20048;-34
2023/10/27 00:54:18;;;;;;;18.60;10.07;;;9.50;99.90;;;;;;5069349;28;20131;-34
2023/10/27 00:56:44;;;;;;;19.55;10.25;;;9.50;99.90;;;;;;5071279;28;20036;-34
2023/10/27 00:59:11;;;;;;;21.38;10.63;;;9.50;99.90;;;;;;5071475;28;20727;-35
2023/10/27 01:01:37;;;;;;;19.95;10.05;;;9.50;99.90;;;;;;5070993;28;20119;-34
2023/10/27 01:04:03;;;;;;;19.63;10.55;;;9.50;99.90;;;;;;5071659;28;20468;-34
2023/10/27 01:06:29;;;;;;;20.17;10.25;;;9.50;99.90;;;;;;5065659;28;20041;-34
2023/10/27 01:08:55;;;;;;;22.75;10.07;;;9.50;99.90;;;;;;5067842;28;20475;-34
2023/10/27 01:11:21;;;;;;;18.83;9.75;;;9.50;99.90;;;;;;5058859;28;20467;-34
2023/10/27 01:13:54;;;;;;;20.83;10.18;;;9.50;99.90;;;;;;5053341;28;20044;-34
2023/10/27 01:16:20;;;;;;;;;;;9.50;99.90;;;;;;5072044;28;20080;-34
2023/10/27 01:18:46;;;;;;;19.13;9.90;;;9.50;99.90;;;;;;5071070;28;19970;-34
2023/10/27 01:21:11;;;;;;;19.85;9.88;;;9.50;99.90;;;;;;5071681;28;20052;-34
2023/10/27 01:23:37;;;;;;;24.40;12.30;;;9.50;99.90;;;;;;5070665;28;20460;-34
2023/10/27 01:26:04;;;;;;;21.67;11.75;;;9.50;99.90;;;;;;5080578;28;20579;-34
2023/10/27 01:28:30;;;;;;;23.25;12.77;;;9.50;99.90;;;;;;5074696;28;20071;-34
2023/10/27 01:30:59;;;;;;;22.02;10.70;;;9.50;99.90;;;;;;5076675;28;20236;-34
2023/10/27 01:33:25;;;;;;;25.85;12.23;;;9.40;99.90;;;;;;5079243;28;20601;-34
2023/10/27 01:35:51;;;;;;;26.45;12.60;;;9.40;99.90;;;;;;5083071;28;20139;-34
2023/10/27 01:38:17;;;;;;;24.75;11.43;;;9.40;99.90;;;;;;5079084;28;20056;-34
2023/10/27 01:40:43;;;;;;;26.92;12.35;;;9.40;99.90;;;;;;5081544;28;20394;-34
2023/10/27 01:43:09;;;;;;;28.77;12.82;;;9.40;99.90;;;;;;5082690;28;20056;-34
2023/10/27 01:45:35;;;;;;;28.33;13.13;;;9.40;99.90;;;;;;5071839;28;20131;-34
2023/10/27 01:48:00;;;;;;;31.52;14.07;;;9.40;99.90;;;;;;5071241;28;20056;-35
2023/10/27 01:50:26;;;;;;;32.97;13.52;;;9.30;99.90;;;;;;5080006;28;20070;-35
2023/10/27 01:52:52;;;;;;;29.77;13.68;;;9.30;99.90;;;;;;5068404;28;20136;-35
2023/10/27 01:55:17;;;;;;;30.08;13.05;;;9.30;99.90;;;;;;5082351;28;20043;-35
2023/10/27 01:57:43;;;;;;;27.75;13.80;;;9.30;99.90;;;;;;5073902;28;20048;-34
2023/10/27 02:00:10;;;;;;;24.00;11.82;;;9.30;99.90;;;;;;5054703;28;20048;-35
2023/10/27 02:02:36;;;;;;;29.77;12.85;;;9.30;99.90;;;;;;5050450;28;20110;-35
2023/10/27 02:05:03;;;;;;;28.20;13.57;;;9.30;99.90;;;;;;5074385;28;20052;-35
2023/10/27 02:07:29;;;;;;;28.27;13.55;;;9.30;99.90;;;;;;5077782;28;20117;-37
2023/10/27 02:09:59;;;;;;;30.15;12.88;;;9.30;99.90;;;;;;5084517;28;20044;-35
2023/10/27 02:12:25;;;;;;;29.95;13.07;;;9.30;99.90;;;;;;5061174;28;20087;-36
2023/10/27 02:14:50;;;;;;;28.30;13.00;;;9.30;99.90;;;;;;5071906;28;20044;-35
2023/10/27 02:17:16;;;;;;;27.65;12.52;;;9.30;99.90;;;;;;5080959;28;20105;-35
2023/10/27 02:19:42;;;;;;;29.73;13.20;;;9.30;99.90;;;;;;5053045;28;20052;-35
2023/10/27 02:22:07;;;;;;;23.65;11.57;;;9.30;99.90;;;;;;5075671;28;20051;-34
2023/10/27 02:24:33;;;;;;;27.33;11.68;;;9.30;99.90;;;;;;5073999;28;20083;-35
2023/10/27 02:26:59;;;;;;;25.05;11.77;;;9.30;99.90;;;;;;5072965;28;20089;-35
2023/10/27 02:29:25;;;;;;;29.25;11.95;;;9.30;99.90;;;;;;5082080;28;20046;-35
2023/10/27 02:31:51;;;;;;;27.90;13.18;;;9.30;99.90;;;;;;5081178;28;20048;-34
2023/10/27 02:34:17;;;;;;;24.85;11.32;;;9.30;99.90;;;;;;5076575;28;20071;-35
2023/10/27 02:36:43;;;;;;;24.75;11.70;;;9.30;99.90;;;;;;5078365;28;20141;-35
2023/10/27 02:39:08;;;;;;;24.05;10.90;;;9.40;99.90;;;;;;5079322;28;20051;-35
2023/10/27 02:41:36;;;;;;;25.80;11.32;;;9.40;99.90;;;;;;5087166;28;20165;-35
2023/10/27 02:44:01;;;;;;;26.77;12.35;;;9.40;99.90;;;;;;5081839;28;20047;-34
2023/10/27 02:46:27;;;;;;;24.90;11.90;;;9.40;99.90;;;;;;5090208;28;20067;-35
2023/10/27 02:48:53;;;;;;;25.83;12.02;;;9.40;99.90;;;;;;5070973;28;20075;-35
2023/10/27 02:51:19;;;;;;;23.63;12.57;;;9.40;99.90;;;;;;5078499;28;20051;-35
2023/10/27 02:53:44;;;;;;;24.13;11.95;;;9.40;99.90;;;;;;5069261;28;20118;-34
2023/10/27 02:56:10;;;;;;;25.02;12.45;;;9.40;99.90;;;;;;5087961;28;20432;-34
2023/10/27 02:58:39;;;;;;;26.15;11.75;;;9.40;99.90;;;;;;5090117;28;20427;-35
2023/10/27 03:01:14;;;;;;;28.55;12.68;;;9.40;99.90;;;;;;5075102;28;20051;-35
2023/10/27 03:03:40;;;;;;;24.85;11.82;;;9.40;99.90;;;;;;5065287;28;20048;-34
2023/10/27 03:06:06;;;;;;;27.85;12.10;;;9.40;99.90;;;;;;5088719;28;20059;-35
2023/10/27 03:08:32;;;;;;;25.60;11.65;;;9.40;99.90;;;;;;5084173;28;20048;-34
2023/10/27 03:10:58;;;;;;;22.88;10.77;;;9.40;99.90;;;;;;5082149;28;20051;-35
2023/10/27 03:13:24;;;;;;;25.50;12.60;;;9.40;99.90;;;;;;5061281;28;20414;-35
2023/10/27 03:15:49;;;;;;;27.50;11.57;;;9.40;99.90;;;;;;5083187;28;20494;-34
2023/10/27 03:18:15;;;;;;;21.45;10.50;;;9.40;99.90;;;;;;5088805;28;20578;-35
2023/10/27 03:20:41;;;;;;;29.95;13.02;;;9.40;99.90;;;;;;5082103;28;20048;-35
2023/10/27 03:23:06;;;;;;;22.88;10.30;;;9.40;99.90;;;;;;5088771;28;20090;-35
2023/10/27 03:25:32;;;;;;;26.90;11.63;;;9.40;99.90;;;;;;5075966;28;20091;-35
2023/10/27 03:27:58;;;;;;;26.95;11.98;;;9.40;99.90;;;;;;5068676;28;20445;-35
2023/10/27 03:30:24;;;;;;;28.92;13.80;;;9.40;99.90;;;;;;5063498;28;20297;-34
2023/10/27 03:32:50;;;;;;;34.35;14.18;;;9.40;99.90;;;;;;5074338;28;20060;-34
2023/10/27 03:35:16;;;;;;;25.48;12.07;;;9.50;99.90;;;;;;5078014;28;20071;-34
2023/10/27 03:37:41;;;;;;;30.95;13.02;;;9.40;99.90;;;;;;5080207;28;20512;-38
2023/10/27 03:40:08;;;;;;;25.45;11.15;;;9.50;99.90;;;;;;5074640;28;20086;-34
2023/10/27 03:42:34;;;;;;;27.98;11.88;;;9.50;99.90;;;;;;5079798;28;20051;-34
2023/10/27 03:44:59;;;;;;;32.05;13.10;;;9.40;99.90;;;;;;5073334;28;20048;-34
2023/10/27 03:47:25;;;;;;;30.85;13.90;;;9.40;99.90;;;;;;5067786;28;20055;-34
2023/10/27 03:49:51;;;;;;;28.83;12.70;;;9.50;99.90;;;;;;5068340;28;20055;-34
2023/10/27 03:52:17;;;;;;;30.98;12.98;;;9.50;99.90;;;;;;5068663;28;20048;-34
2023/10/27 03:54:43;;;;;;;29.45;12.82;;;9.40;99.90;;;;;;5075326;28;20409;-34
2023/10/27 03:57:08;;;;;;;28.55;13.13;;;9.50;99.90;;;;;;5079852;28;20062;-34
2023/10/27 03:59:34;;;;;;;27.20;10.48;;;9.50;99.90;;;;;;5068401;28;20056;-34
2023/10/27 04:02:00;;;;;;;32.10;12.85;;;9.50;99.90;;;;;;5066705;28;20056;-34
2023/10/27 04:04:25;;;;;;;30.60;12.40;;;9.50;99.90;;;;;;5075514;28;20049;-35
2023/10/27 04:06:53;;;;;;;30.65;12.55;;;9.40;99.90;;;;;;5067662;28;20059;-34
2023/10/27 04:09:20;;;;;;;31.55;12.82;;;9.40;99.90;;;;;;5071611;28;20443;-34
2023/10/27 04:11:46;;;;;;;37.00;12.73;;;9.50;99.90;;;;;;5067155;28;20056;-34
2023/10/27 04:14:12;;;;;;;27.42;11.80;;;9.50;99.90;;;;;;5080713;28;20475;-34
2023/10/27 04:16:39;;;;;;;34.25;12.27;;;9.50;99.90;;;;;;5070298;28;20131;-34
2023/10/27 04:19:05;;;;;;;31.73;12.98;;;9.50;99.90;;;;;;5073598;28;20409;-34
2023/10/27 04:21:31;;;;;;;30.10;12.90;;;9.50;99.90;;;;;;5078714;28;20040;-34
2023/10/27 04:23:58;;;;;;;30.30;12.07;;;9.50;99.90;;;;;;5038507;28;20497;-34
2023/10/27 04:26:24;;;;;;;31.13;13.38;;;9.50;99.90;;;;;;5077242;28;20501;-34
2023/10/27 04:28:49;;;;;;;27.38;11.73;;;9.50;99.90;;;;;;5080154;28;20059;-34
2023/10/27 04:31:15;;;;;;;32.67;13.27;;;9.50;99.90;;;;;;5072603;28;20059;-34
2023/10/27 04:33:42;;;;;;;26.55;11.45;;;9.50;99.90;;;;;;5067207;28;20040;-34
2023/10/27 04:36:08;;;;;;;29.80;13.65;;;9.50;99.90;;;;;;5069022;28;20131;-34
2023/10/27 04:38:33;;;;;;;28.77;13.10;;;9.50;99.90;;;;;;5061458;28;20353;-34
2023/10/27 04:40:59;;;;;;;34.72;13.50;;;9.50;99.90;;;;;;5066983;28;20565;-34
2023/10/27 04:43:25;;;;;;;32.97;14.30;;;9.50;99.90;;;;;;5065322;28;20131;-34
2023/10/27 04:45:50;;;;;;;30.90;13.77;;;9.50;99.90;;;;;;5055959;28;20051;-35
2023/10/27 04:48:16;;;;;;;26.27;12.02;;;9.50;99.90;;;;;;5072012;28;20060;-35
2023/10/27 04:50:42;;;;;;;29.23;12.68;;;9.50;99.90;;;;;;5071781;28;20143;-34
2023/10/27 04:53:07;;;;;;;33.17;14.60;;;9.50;99.90;;;;;;5070925;28;20428;-34
2023/10/27 04:55:33;;;;;;;28.45;12.85;;;9.50;99.90;;;;;;5071865;28;20056;-34
2023/10/27 04:57:59;;;;;;;31.45;12.80;;;9.50;99.90;;;;;;5068157;28;20055;-34
2023/10/27 05:00:25;;;;;;;33.70;13.75;;;9.50;99.90;;;;;;5075172;28;20048;-34
2023/10/27 05:02:53;;;;;;;32.55;13.38;;;9.50;99.90;;;;;;5073884;28;20422;-34
2023/10/27 05:05:20;;;;;;;33.50;12.32;;;9.50;99.90;;;;;;5064103;28;21161;-41
2023/10/27 05:07:47;;;;;;;36.65;14.77;;;9.50;99.90;;;;;;5076528;28;20057;-34
2023/10/27 05:10:13;;;;;;;27.92;12.88;;;9.50;99.90;;;;;;5062307;28;20048;-35
2023/10/27 05:12:38;;;;;;;30.60;12.15;;;9.50;99.90;;;;;;5067051;28;20405;-34
2023/10/27 05:15:05;;;;;;;31.02;12.32;;;9.50;99.90;;;;;;5070241;28;20565;-34
2023/10/27 05:17:36;;;;;;;30.10;13.20;;;9.50;99.90;;;;;;5071295;28;20490;-34
2023/10/27 05:20:08;;;;;;;32.40;13.85;;;9.50;99.90;;;;;;5065481;28;20139;-34
2023/10/27 05:22:33;;;;;;;32.73;13.73;;;9.50;99.90;;;;;;5080644;28;20490;-34
2023/10/27 05:25:06;;;;;;;31.45;13.32;;;9.50;99.90;;;;;;5080901;28;20306;-34
2023/10/27 05:27:33;;;;;;;30.65;12.07;;;9.50;99.90;;;;;;5084399;28;20044;-34
2023/10/27 05:29:59;;;;;;;29.73;13.07;;;9.50;99.90;;;;;;5090658;28;20078;-34
2023/10/27 05:32:25;;;;;;;32.88;13.45;;;9.40;99.90;;;;;;5090063;28;20091;-34
2023/10/27 05:34:51;;;;;;;29.13;11.88;;;9.50;99.90;;;;;;5091453;28;20075;-34
2023/10/27 05:37:17;;;;;;;31.75;13.15;;;9.40;99.90;;;;;;5089714;28;20100;-34
2023/10/27 05:39:42;;;;;;;29.27;12.13;;;9.40;99.90;;;;;;5091338;28;20109;-34
2023/10/27 05:42:08;;;;;;;30.40;11.70;;;9.40;99.90;;;;;;5089786;28;20075;-34
2023/10/27 05:44:34;;;;;;;33.08;12.13;;;9.40;99.90;;;;;;5083429;28;20469;-35
2023/10/27 05:47:01;;;;;;;34.17;12.07;;;9.40;99.90;;;;;;5089203;28;20509;-33
2023/10/27 05:49:27;;;;;;;28.55;11.10;;;9.40;99.90;;;;;;5090643;28;20143;-34
2023/10/27 05:51:53;;;;;;;34.30;12.63;;;9.40;99.90;;;;;;5091320;28;20044;-35
2023/10/27 05:54:19;;;;;;;32.50;13.02;;;9.40;99.90;;;;;;5090057;28;20108;-34
2023/10/27 05:56:44;;;;;;;31.70;12.15;;;9.40;99.90;;;;;;5091223;28;20063;-34
2023/10/27 05:59:10;;;;;;;27.02;11.15;;;9.40;99.90;;;;;;5089840;28;20044;-34
2023/10/27 06:01:36;;;;;;;30.17;12.55;;;9.40;99.90;;;;;;5090602;28;20043;-35
2023/10/27 06:04:01;;;;;;;34.15;12.38;;;9.40;99.90;;;;;;5090324;28;20063;-34
2023/10/27 06:06:27;;;;;;;33.90;14.02;;;9.40;99.90;;;;;;5090363;28;20044;-34
2023/10/27 06:08:53;;;;;;;31.65;12.43;;;9.40;99.90;;;;;;5072176;28;20059;-34
2023/10/27 06:11:19;;;;;;;31.45;12.60;;;9.40;99.90;;;;;;5089888;28;20079;-34
2023/10/27 06:13:45;;;;;;;35.90;13.43;;;9.40;99.90;;;;;;5090120;28;20121;-34
2023/10/27 06:16:11;;;;;;;30.80;12.10;;;9.40;99.90;;;;;;5089721;28;20871;-34
2023/10/27 06:18:37;;;;;;;32.92;12.95;;;9.40;99.90;;;;;;5097527;28;20417;-35
2023/10/27 06:21:04;;;;;;;32.83;12.10;;;9.40;99.90;;;;;;5090159;28;20059;-34
2023/10/27 06:23:29;;;;;;;30.77;12.18;;;9.40;99.90;;;;;;5089136;28;20452;-34
2023/10/27 06:25:55;;;;;;;32.05;12.70;;;9.40;99.90;;;;;;5090326;28;20113;-34
2023/10/27 06:28:21;;;;;;;34.92;13.50;;;9.40;99.90;;;;;;5089436;28;20426;-34
2023/10/27 06:30:47;;;;;;;29.00;11.70;;;9.40;99.90;;;;;;5090119;28;20434;-34
2023/10/27 06:33:12;;;;;;;29.65;11.73;;;9.40;99.90;;;;;;5089764;28;20050;-33
2023/10/27 06:35:39;;;;;;;33.00;13.23;;;9.40;99.90;;;;;;5085423;28;20094;-34
2023/10/27 06:38:04;;;;;;;32.97;12.88;;;9.40;99.90;;;;;;5070830;28;20546;-45
2023/10/27 06:40:30;;;;;;;29.23;12.23;;;9.40;99.90;;;;;;5090192;28;20052;-34
2023/10/27 06:42:55;;;;;;;27.27;12.07;;;9.40;99.90;;;;;;5090308;28;20060;-34
2023/10/27 06:45:21;;;;;;;32.20;13.40;;;9.40;99.90;;;;;;5089537;28;20505;-34
2023/10/27 06:47:46;;;;;;;35.08;14.38;;;9.40;99.90;;;;;;5071605;28;20059;-35
2023/10/27 06:50:12;;;;;;;30.27;12.52;;;9.50;99.90;;;;;;5088845;28;20105;-35
2023/10/27 06:52:38;;;;;;;32.63;14.05;;;9.40;99.90;;;;;;5089094;28;20051;-35
2023/10/27 06:55:04;;;;;;;32.83;12.70;;;9.50;99.90;;;;;;5089606;28;20055;-35
2023/10/27 06:57:30;;;;;;;35.03;13.75;;;9.40;99.90;;;;;;5088974;28;20493;-35
2023/10/27 06:59:56;;;;;;;32.15;12.88;;;9.50;99.90;;;;;;5088878;28;20090;-35
2023/10/27 07:02:25;;;;;;;28.92;12.43;;;9.50;99.90;;;;;;5088970;28;20076;-35
2023/10/27 07:04:51;;;;;;;25.77;11.93;;;9.50;99.90;;;;;;5089349;28;20561;-35
2023/10/27 07:07:16;;;;;;;24.70;10.20;;;9.50;99.90;;;;;;5088558;28;20044;-35
2023/10/27 07:09:42;;;;;;;25.58;11.38;;;9.50;99.90;;;;;;5088810;28;20507;-35
2023/10/27 07:12:08;;;;;;;29.92;12.20;;;9.50;99.90;;;;;;5088635;28;20047;-35
2023/10/27 07:14:38;;;;;;;25.42;11.52;;;9.50;99.90;;;;;;5089093;28;20051;-35
2023/10/27 07:17:04;;;;;;;29.02;13.95;;;9.50;99.90;;;;;;5089304;28;20414;-35
2023/10/27 07:19:34;;;;;;;27.95;12.02;;;9.50;99.90;;;;;;5087900;28;20044;-35
2023/10/27 07:22:00;;;;;;;26.80;11.57;;;9.50;99.90;;;;;;5088809;28;20060;-35
2023/10/27 07:24:29;;;;;;;25.50;11.23;;;9.60;99.90;;;;;;5087991;28;20504;-35
2023/10/27 07:26:55;;;;;;;28.25;11.32;;;9.60;99.90;;;;;;5083021;28;20044;-35
2023/10/27 07:29:21;;;;;;;24.73;10.40;;;9.60;99.90;;;;;;5074078;28;20080;-35
2023/10/27 07:31:48;;;;;;;24.90;11.55;;;9.60;99.90;;;;;;5070458;28;20095;-35
2023/10/27 07:34:14;;;;;;;25.20;11.52;;;9.60;99.90;;;;;;5075217;28;20527;-35
2023/10/27 07:36:40;;;;;;;28.02;12.30;;;9.60;99.90;;;;;;5073198;28;20052;-35
2023/10/27 07:39:06;;;;;;;24.40;11.43;;;9.60;99.90;;;;;;5075658;28;20426;-35
2023/10/27 07:41:34;;;;;;;24.80;12.00;;;9.60;99.90;;;;;;5063364;28;20064;-35
2023/10/27 07:44:00;;;;;;;23.60;11.25;;;9.60;99.90;;;;;;5078770;28;20056;-35
2023/10/27 07:46:26;;;;;;;23.15;11.13;;;9.60;99.90;;;;;;5079203;28;20425;-35
2023/10/27 07:48:52;;;;;;;25.00;11.13;;;9.60;99.90;;;;;;5084135;28;20052;-35
2023/10/27 07:51:18;;;;;;;22.95;10.50;;;9.60;99.90;;;;;;5077225;28;20443;-44
2023/10/27 07:53:43;;;;;;;22.33;10.68;;;9.60;99.90;;;;;;5074582;28;20139;-35
2023/10/27 07:56:09;;;;;;;19.45;9.32;;;9.60;99.90;;;;;;5078751;28;20417;-35
2023/10/27 07:58:35;;;;;;;27.05;10.57;;;9.60;99.90;;;;;;5061782;28;20062;-35
2023/10/27 08:01:01;;;;;;;23.50;10.88;;;9.60;99.90;;;;;;5077488;28;20055;-34
2023/10/27 08:03:28;;;;;;;22.27;10.77;;;9.60;99.90;;;;;;5060098;28;20047;-35
2023/10/27 08:05:53;;;;;;;26.27;11.80;;;9.60;99.90;;;;;;5079709;28;20040;-35
2023/10/27 08:08:20;;;;;;;26.48;12.02;;;9.70;99.90;;;;;;5072319;28;20117;-35
2023/10/27 08:10:47;;;;;;;25.15;11.30;;;9.70;99.90;;;;;;5078547;28;20064;-35
2023/10/27 08:13:16;;;;;;;22.77;10.50;;;9.70;99.90;;;;;;5079694;28;20071;-35
2023/10/27 08:15:43;;;;;;;24.75;10.80;;;9.70;99.90;;;;;;5053140;28;20040;-35
2023/10/27 08:18:09;;;;;;;26.75;12.27;;;9.70;99.90;;;;;;5072983;28;20494;-35
2023/10/27 08:20:35;;;;;;;24.30;12.00;;;9.80;99.90;;;;;;5065869;28;20135;-35
2023/10/27 08:23:00;;;;;;;25.27;11.20;;;9.80;99.90;;;;;;5081160;28;20174;-35
2023/10/27 08:25:26;;;;;;;23.38;11.30;;;9.80;99.90;;;;;;5082714;28;20064;-34
2023/10/27 08:27:52;;;;;;;23.30;10.43;;;9.90;99.90;;;;;;5073900;28;20055;-34
2023/10/27 08:30:18;;;;;;;22.05;10.38;;;9.90;99.90;;;;;;5091353;28;20047;-35
2023/10/27 08:32:44;;;;;;;23.08;10.98;;;9.90;99.90;;;;;;5092274;28;20054;-35
2023/10/27 08:35:10;;;;;;;23.95;11.38;;;9.90;99.90;;;;;;5091937;28;20056;-35
2023/10/27 08:37:35;;;;;;;21.65;11.02;;;9.90;99.90;;;;;;5091341;28;20056;-38
2023/10/27 08:40:03;;;;;;;25.23;11.93;;;9.90;99.90;;;;;;5073900;28;20509;-35
2023/10/27 08:42:32;;;;;;;24.05;10.77;;;9.90;99.90;;;;;;5091089;28;20044;-34
2023/10/27 08:44:59;;;;;;;25.00;10.90;;;9.90;99.90;;;;;;5092061;28;20488;-35
2023/10/27 08:47:26;;;;;;;21.73;10.23;;;9.90;99.90;;;;;;5090549;28;20063;-34
2023/10/27 08:49:53;;;;;;;19.15;9.68;;;10.00;99.90;;;;;;5091513;28;20055;-34
2023/10/27 08:52:19;;;;;;;24.35;10.32;;;10.00;99.90;;;;;;5072453;28;20127;-34
2023/10/27 08:54:45;;;;;;;23.23;11.05;;;10.00;99.90;;;;;;5091419;28;20051;-34
2023/10/27 08:57:11;;;;;;;21.83;11.02;;;10.00;99.90;;;;;;5090877;28;20040;-34
2023/10/27 08:59:38;;;;;;;23.90;11.35;;;10.00;99.90;;;;;;5091225;28;20052;-34
2023/10/27 09:02:05;;;;;;;24.17;11.05;;;10.00;99.90;;;;;;5091628;28;20072;-34
2023/10/27 09:04:31;;;;;;;20.90;10.30;;;10.00;99.90;;;;;;5089544;28;20043;-34
2023/10/27 09:06:57;;;;;;;24.23;10.90;;;10.00;99.90;;;;;;5090724;28;20497;-34
2023/10/27 09:09:23;;;;;;;20.08;9.68;;;10.00;99.90;;;;;;5087498;28;20509;-34
2023/10/27 09:11:49;;;;;;;21.60;10.27;;;10.00;99.90;;;;;;5083081;28;20508;-34
2023/10/27 09:14:28;;;;;;;20.88;9.57;;;10.00;99.90;;;;;;5091181;28;20127;-35
2023/10/27 09:17:05;;;;;;;23.20;10.63;;;10.00;99.90;;;;;;5087722;28;20052;-35
2023/10/27 09:19:32;;;;;;;22.13;10.55;;;10.00;99.90;;;;;;5089511;28;20048;-35
2023/10/27 09:21:58;;;;;;;19.85;10.00;;;10.00;99.90;;;;;;5091179;28;20076;-35
2023/10/27 09:24:29;;;;;;;22.95;10.13;;;10.00;99.90;;;;;;5090009;28;20059;-35
2023/10/27 09:26:57;;;;;;;17.98;8.07;;;10.10;99.90;;;;;;5074460;28;20467;-36
2023/10/27 09:29:24;;;;;;;18.63;9.25;;;10.10;99.90;;;;;;5077916;28;20049;-35
2023/10/27 09:31:50;;;;;;;17.73;9.20;;;10.10;99.90;;;;;;5070127;28;20040;-41
2023/10/27 09:34:24;;;;;;;21.20;9.13;;;10.10;99.90;;;;;;5081887;28;20412;-35
2023/10/27 09:36:54;;;;;;;22.25;9.45;;;10.10;99.90;;;;;;5082705;28;20489;-35
2023/10/27 09:39:23;;;;;;;18.70;8.68;;;10.10;99.90;;;;;;5071356;28;20052;-35
2023/10/27 09:42:00;;;;;;;22.25;10.40;;;10.20;99.90;;;;;;5057551;28;20055;-34
2023/10/27 09:45:00;;;;;;;19.55;8.40;;;10.20;99.90;;;;;;5078889;28;20129;-34
2023/10/27 09:47:38;;;;;;;15.38;8.20;;;10.20;99.90;;;;;;5066152;28;20561;-35
2023/10/27 09:50:06;;;;;;;18.05;8.20;;;10.20;99.90;;;;;;5068384;28;20051;-35
2023/10/27 09:52:34;;;;;;;17.13;8.40;;;10.30;99.90;;;;;;5070631;28;20044;-35
2023/10/27 09:55:02;;;;;;;15.40;7.65;;;10.30;99.90;;;;;;5078606;28;20131;-35
2023/10/27 09:57:29;;;;;;;16.98;7.90;;;10.30;99.90;;;;;;5073422;28;20490;-35
2023/10/27 10:00:01;;;;;;;16.60;7.63;;;10.30;99.90;;;;;;5074415;28;20763;-35
2023/10/27 10:02:31;;;;;;;14.80;7.65;;;10.30;99.90;;;;;;5081301;28;20067;-35
2023/10/27 10:04:59;;;;;;;16.13;7.40;;;10.30;99.90;;;;;;5053014;28;20148;-35
2023/10/27 10:07:41;;;;;;;15.80;8.15;;;10.40;99.90;;;;;;5048650;28;20178;-35
2023/10/27 10:10:26;;;;;;;17.73;7.88;;;10.40;99.90;;;;;;5041348;28;20056;-35
2023/10/27 10:13:02;;;;;;;17.27;8.15;;;10.40;99.90;;;;;;5062230;28;20139;-36
2023/10/27 10:15:31;;;;;;;16.08;8.38;;;10.40;99.90;;;;;;5063346;28;20064;-36
2023/10/27 10:17:57;;;;;;;15.77;8.27;;;10.50;99.90;;;;;;5076826;28;20076;-34
2023/10/27 10:20:44;;;;;;;18.30;8.30;;;10.50;99.90;;;;;;5083611;28;20039;-34
2023/10/27 10:23:10;;;;;;;18.17;9.13;;;10.50;99.90;;;;;;5067268;28;20139;-34
2023/10/27 10:25:48;;;;;;;23.55;9.43;;;10.50;99.90;;;;;;5077297;28;20110;-34
2023/10/27 10:28:14;;;;;;;15.90;8.85;;;10.50;99.90;;;;;;5080238;28;20257;-34
2023/10/27 10:30:44;;;;;;;16.40;8.25;;;10.50;99.90;;;;;;5077082;28;20057;-34
2023/10/27 10:33:29;;;;;;;18.00;9.15;;;10.50;99.90;;;;;;5063712;28;20139;-34
2023/10/27 10:36:25;;;;;;;19.27;9.70;;;10.50;99.90;;;;;;5069891;28;20086;-34
2023/10/27 10:38:53;;;;;;;23.17;10.00;;;10.50;99.90;;;;;;5050156;28;20140;-34
2023/10/27 10:41:19;;;;;;;16.45;8.43;;;10.40;99.90;;;;;;5078722;28;20064;-34
2023/10/27 10:44:06;;;;;;;19.42;8.98;;;10.40;99.90;;;;;;5079866;28;20045;-34
2023/10/27 10:46:31;;;;;;;17.70;9.13;;;10.50;99.90;;;;;;5062635;28;20060;-34
2023/10/27 10:48:57;;;;;;;16.13;8.40;;;10.50;99.90;;;;;;5080640;28;20110;-35
2023/10/27 10:51:29;;;;;;;21.40;9.15;;;10.50;99.90;;;;;;5080141;28;20067;-35
2023/10/27 10:53:55;;;;;;;16.58;8.75;;;10.50;99.90;;;;;;5058958;28;20487;-35
2023/10/27 10:56:22;;;;;;;17.23;8.23;;;10.50;99.90;;;;;;5064408;28;20080;-35
2023/10/27 10:58:48;;;;;;;16.02;7.80;;;10.50;99.90;;;;;;5068559;28;20044;-35
2023/10/27 11:01:22;;;;;;;14.57;7.80;;;10.50;99.90;;;;;;5076230;28;20079;-36
2023/10/27 11:03:50;;;;;;;14.40;7.07;;;10.50;99.90;;;;;;5052056;28;20524;-35
2023/10/27 11:06:19;;;;;;;14.32;7.50;;;10.50;99.90;;;;;;5071728;28;20052;-35
2023/10/27 11:08:45;;;;;;;14.93;7.40;;;10.50;99.90;;;;;;5071385;28;20060;-35
2023/10/27 11:11:17;;;;;;;13.98;6.50;;;10.60;99.90;;;;;;5068753;28;20052;-35
2023/10/27 11:13:47;;;;;;;16.38;7.63;;;10.60;99.90;;;;;;5055430;28;20144;-35
2023/10/27 11:16:18;;;;;;;14.15;7.18;;;10.60;99.90;;;;;;5069805;28;20490;-35
2023/10/27 11:18:48;;;;;;;12.52;6.50;;;10.60;99.90;;;;;;5068528;28;20044;-34
2023/10/27 11:21:22;;;;;;;15.20;7.45;;;10.70;99.90;;;;;;5069435;28;20063;-35
2023/10/27 11:23:49;;;;;;;14.40;7.32;;;10.70;99.90;;;;;;5070415;28;20414;-34
2023/10/27 11:26:17;;;;;;;12.95;6.72;;;10.80;99.90;;;;;;5078258;28;20470;-35
2023/10/27 11:28:44;;;;;;;11.98;6.03;;;10.80;99.90;;;;;;5073172;28;20102;-34
2023/10/27 11:31:22;;;;;;;11.65;5.50;;;10.80;99.90;;;;;;5077428;28;20049;-35
2023/10/27 11:34:08;;;;;;;12.15;5.82;;;10.80;99.90;;;;;;5068987;28;20044;-35
2023/10/27 11:37:01;;;;;;;11.57;6.18;;;10.70;99.90;;;;;;5066816;28;20044;-35
2023/10/27 11:39:28;;;;;;;11.77;5.80;;;10.70;99.90;;;;;;5056769;28;20044;-35
2023/10/27 11:42:01;;;;;;;17.85;6.18;;;10.70;99.90;;;;;;5077475;28;20131;-35
2023/10/27 11:44:28;;;;;;;12.02;5.75;;;10.70;99.90;;;;;;5068117;28;20062;-35
2023/10/27 11:46:56;;;;;;;10.93;5.90;;;10.70;99.90;;;;;;5081533;28;20477;-35
2023/10/27 11:49:22;;;;;;;12.10;6.20;;;10.70;99.90;;;;;;5067721;28;20062;-35
2023/10/27 11:51:51;;;;;;;14.75;6.05;;;10.70;99.90;;;;;;5050543;28;20495;-43
2023/10/27 11:54:17;;;;;;;10.60;4.65;;;10.70;99.90;;;;;;5075726;28;20048;-34
2023/10/27 11:56:44;;;;;;;12.52;5.00;;;10.70;99.90;;;;;;5064763;28;20048;-34
2023/10/27 11:59:10;;;;;;;11.18;5.80;;;10.70;99.90;;;;;;5070516;28;20071;-34
2023/10/27 12:01:39;;;;;;;11.77;6.65;;;10.70;99.90;;;;;;5066304;28;20072;-36
2023/10/27 12:04:07;;;;;;;13.52;7.07;;;10.70;99.90;;;;;;5068569;28;20585;-34
2023/10/27 12:06:33;;;;;;;14.50;5.80;;;10.70;99.90;;;;;;5069637;28;20098;-36
2023/10/27 12:08:59;;;;;;;15.95;9.32;;;10.70;99.90;;;;;;5068786;28;20063;-35
2023/10/27 12:11:27;;;;;;;18.55;10.60;;;10.70;99.90;;;;;;5068835;28;20176;-35
2023/10/27 12:13:53;;;;;;;15.68;8.90;;;10.80;99.90;;;;;;5074344;28;20055;-35
2023/10/27 12:16:19;;;;;;;12.93;6.13;;;10.80;99.90;;;;;;5062087;28;20056;-40
2023/10/27 12:18:45;;;;;;;10.77;5.88;;;10.80;99.90;;;;;;5054633;28;20497;-35
2023/10/27 12:21:11;;;;;;;51.65;33.20;;;10.80;99.90;;;;;;5074849;28;20055;-35
2023/10/27 12:23:36;;;;;;;15.63;8.75;;;10.80;99.90;;;;;;5059241;28;20525;-35
2023/10/27 12:26:03;;;;;;;29.23;15.73;;;10.80;99.90;;;;;;5058659;28;20052;-35
2023/10/27 12:28:29;;;;;;;22.88;12.13;;;10.90;99.90;;;;;;5068599;28;20048;-35
2023/10/27 12:30:57;;;;;;;31.58;16.58;;;10.90;99.90;;;;;;5069361;28;20101;-35
2023/10/27 12:33:23;;;;;;;16.45;8.75;;;10.90;99.90;;;;;;5066526;28;20049;-35
2023/10/27 12:35:49;;;;;;;19.20;11.18;;;11.00;99.90;;;;;;5051219;28;20059;-35